Time;durP1;ratioP1;P1;durP2;ratioP2;P2;SDS_P1;SDS_P2;PMS_P1;PMS_P2;Temp;Humidity;BMP_temperature;BMP_pressure;BME280_temperature;BME280_humidity;BME280_pressure;Samples;Min_cycle;Max_cycle;Signal;HPM_P1;HPM_P2
2021/10/03 00:01:56;;;;;;;2.92;1.40;;;;;;;16.02;87.81;99238.25;5031421;28;19966;-42
2021/10/03 00:04:22;;;;;;;3.53;1.65;;;;;;;16.02;87.81;99235.56;5031563;28;20022;-42
2021/10/03 00:06:49;;;;;;;4.35;1.70;;;;;;;16.01;88.10;99221.16;5031875;28;20096;-42
2021/10/03 00:09:14;;;;;;;4.13;1.50;;;;;;;16.01;88.02;99217.66;5030361;28;20396;-42
2021/10/03 00:11:39;;;;;;;4.35;1.48;;;;;;;16.03;88.01;99212.75;5030266;28;20025;-42
2021/10/03 00:14:05;;;;;;;2.35;1.40;;;;;;;16.02;88.05;99203.00;5031811;28;20025;-42
2021/10/03 00:16:30;;;;;;;3.90;1.58;;;;;;;15.98;88.20;99208.13;5034590;28;20033;-41
2021/10/03 00:18:56;;;;;;;2.97;1.52;;;;;;;16.04;87.84;99227.97;5036511;28;20107;-41
2021/10/03 00:21:21;;;;;;;2.60;1.25;;;;;;;16.05;87.58;99223.38;5031565;28;20056;-42
2021/10/03 00:23:47;;;;;;;5.63;1.25;;;;;;;16.04;86.10;99227.16;5031491;28;20021;-43
2021/10/03 00:26:12;;;;;;;3.95;1.48;;;;;;;16.00;87.30;99233.09;5032045;28;20033;-41
2021/10/03 00:28:37;;;;;;;4.95;1.42;;;;;;;15.95;87.22;99230.31;5030126;28;20049;-42
2021/10/03 00:31:03;;;;;;;4.88;1.85;;;;;;;15.92;87.75;99240.88;5032074;28;20088;-41
2021/10/03 00:33:28;;;;;;;2.92;1.10;;;;;;;15.82;88.36;99249.72;5035975;28;20025;-41
2021/10/03 00:35:54;;;;;;;5.38;1.20;;;;;;;15.80;88.61;99265.47;5035349;28;20029;-42
2021/10/03 00:38:19;;;;;;;3.58;1.35;;;;;;;15.72;88.88;99246.94;5035013;28;20033;-45
2021/10/03 00:40:45;;;;;;;1.60;1.20;;;;;;;15.72;88.34;99252.34;5034959;28;20376;-44
2021/10/03 00:43:12;;;;;;;5.68;1.40;;;;;;;15.68;88.92;99259.31;5034990;28;20104;-47
2021/10/03 00:45:37;;;;;;;6.13;1.47;;;;;;;15.61;89.37;99255.97;5035168;28;20028;-44
2021/10/03 00:48:03;;;;;;;5.47;1.38;;;;;;;15.57;88.64;99266.50;5034943;28;20384;-44
2021/10/03 00:50:29;;;;;;;4.78;1.25;;;;;;;15.57;88.64;99258.38;5034665;28;20033;-45
2021/10/03 00:52:55;;;;;;;9.88;1.42;;;;;;;15.51;88.32;99254.78;5034711;28;20064;-43
2021/10/03 00:55:21;;;;;;;7.63;1.60;;;;;;;15.44;88.60;99261.47;5035165;28;20471;-43
2021/10/03 00:57:50;;;;;;;8.07;1.30;;;;;;;15.37;88.31;99267.06;5034559;28;20040;-43
2021/10/03 01:00:19;;;;;;;12.00;1.67;;;;;;;15.33;88.06;99268.66;5034231;28;20025;-43
2021/10/03 01:02:45;;;;;;;10.13;1.65;;;;;;;15.31;87.79;99289.78;5034629;28;20033;-41
2021/10/03 01:05:11;;;;;;;8.20;1.70;;;;;;;15.32;86.95;99272.44;5034692;28;20384;-41
2021/10/03 01:07:37;;;;;;;12.35;1.90;;;;;;;15.26;87.26;99292.41;5034498;28;20053;-41
2021/10/03 01:10:09;;;;;;;13.10;2.47;;;;;;;15.24;86.97;99294.56;5034301;28;20033;-42
2021/10/03 01:12:34;;;;;;;16.40;1.80;;;;;;;15.18;87.64;99292.84;5034132;28;20138;-44
2021/10/03 01:15:04;;;;;;;16.95;2.63;;;;;;;15.12;88.00;99286.53;5034512;28;20049;-47
2021/10/03 01:17:31;;;;;;;19.75;2.17;;;;;;;15.04;88.38;99290.50;5034447;28;20061;-46
2021/10/03 01:19:56;;;;;;;17.00;2.58;;;;;;;14.97;89.19;99294.44;5034174;28;20026;-43
2021/10/03 01:22:22;;;;;;;14.43;2.03;;;;;;;14.91;89.92;99307.09;5034140;28;20037;-43
2021/10/03 01:24:47;;;;;;;20.75;2.65;;;;;;;14.84;90.42;99306.44;5032904;28;20079;-43
2021/10/03 01:27:13;;;;;;;22.20;2.92;;;;;;;14.80;90.17;99305.31;5034058;28;20021;-45
2021/10/03 01:29:38;;;;;;;17.27;2.10;;;;;;;14.74;90.41;99309.00;5033909;28;20384;-44
2021/10/03 01:32:04;;;;;;;17.33;2.83;;;;;;;14.71;90.29;99324.66;5034087;28;20029;-45
2021/10/03 01:34:29;;;;;;;24.15;2.58;;;;;;;14.64;90.76;99318.59;5034051;28;20029;-44
2021/10/03 01:36:54;;;;;;;23.05;2.80;;;;;;;14.60;91.18;99322.03;5034165;28;20032;-42
2021/10/03 01:39:20;;;;;;;16.35;2.40;;;;;;;14.51;90.96;99335.13;5034236;28;20036;-43
2021/10/03 01:41:45;;;;;;;24.23;2.80;;;;;;;14.47;91.34;99325.84;5033587;28;20399;-41
2021/10/03 01:44:11;;;;;;;15.45;2.15;;;;;;;14.35;91.00;99325.09;5034162;28;20108;-41
2021/10/03 01:46:36;;;;;;;12.48;2.72;;;;;;;14.31;91.21;99323.94;5033922;28;20149;-42
2021/10/03 01:49:01;;;;;;;18.92;2.67;;;;;;;14.25;91.50;99321.16;5033825;28;20036;-42
2021/10/03 01:51:29;;;;;;;20.17;2.60;;;;;;;14.18;91.59;99323.19;5033693;28;20133;-42
2021/10/03 01:53:58;;;;;;;20.25;2.42;;;;;;;14.15;91.60;99325.56;5033519;28;20044;-44
2021/10/03 01:56:24;;;;;;;22.00;2.42;;;;;;;14.09;91.80;99311.13;5021165;28;20116;-42
2021/10/03 01:59:01;;;;;;;20.20;2.83;;;;;;;14.03;92.07;99299.38;5033340;28;20069;-42
2021/10/03 02:01:32;;;;;;;26.27;2.87;;;;;;;14.00;92.21;99299.03;5033442;28;20029;-42
2021/10/03 02:03:57;;;;;;;21.10;2.58;;;;;;;13.92;92.13;99307.53;5033355;28;20030;-43
2021/10/03 02:06:24;;;;;;;20.83;3.08;;;;;;;13.89;92.28;99310.72;5032264;28;20029;-42
2021/10/03 02:08:59;;;;;;;22.58;2.40;;;;;;;13.86;92.01;99317.44;5032262;28;20033;-43
2021/10/03 02:11:27;;;;;;;25.27;2.60;;;;;;;13.82;92.19;99311.72;5032892;28;20029;-44
2021/10/03 02:13:53;;;;;;;21.02;2.50;;;;;;;13.79;92.30;99306.75;5032223;28;20053;-43
2021/10/03 02:16:18;;;;;;;18.63;2.58;;;;;;;13.78;91.84;99299.72;5033590;28;20057;-43
2021/10/03 02:18:45;;;;;;;22.70;2.30;;;;;;;13.78;91.88;99309.72;5033417;28;20116;-44
2021/10/03 02:21:11;;;;;;;19.43;3.23;;;;;;;13.73;92.25;99302.31;5032955;28;21290;-44
2021/10/03 02:23:37;;;;;;;23.60;2.72;;;;;;;13.72;92.41;99310.69;5027861;28;20026;-44
2021/10/03 02:26:03;;;;;;;25.98;2.90;;;;;;;13.70;92.38;99313.63;5033405;28;20476;-45
2021/10/03 02:28:29;;;;;;;22.08;2.90;;;;;;;13.70;92.53;99310.91;5032683;28;20029;-44
2021/10/03 02:31:02;;;;;;;29.38;3.10;;;;;;;13.69;92.83;99317.38;5032865;28;20033;-45
2021/10/03 02:33:27;;;;;;;18.65;2.53;;;;;;;13.68;93.00;99315.72;5013347;28;20030;-46
2021/10/03 02:35:53;;;;;;;16.38;2.30;;;;;;;13.69;92.87;99325.50;5013179;28;20385;-45
2021/10/03 02:38:21;;;;;;;29.17;4.35;;;;;;;13.69;92.55;99328.22;5032471;28;20121;-46
2021/10/03 02:40:49;;;;;;;19.23;2.95;;;;;;;13.72;92.38;99324.19;5032579;28;20036;-46
2021/10/03 02:43:15;;;;;;;15.52;2.60;;;;;;;13.73;92.48;99317.72;5032605;28;20033;-44
2021/10/03 02:45:44;;;;;;;19.10;2.58;;;;;;;13.71;91.87;99319.84;5032988;28;20032;-45
2021/10/03 02:48:10;;;;;;;15.55;2.50;;;;;;;13.74;91.91;99330.16;5032460;28;20018;-44
2021/10/03 02:50:36;;;;;;;15.45;2.47;;;;;;;13.74;91.76;99336.38;5032549;28;20033;-43
2021/10/03 02:53:02;;;;;;;20.75;2.58;;;;;;;13.73;91.83;99334.75;5032372;28;20112;-49
2021/10/03 02:55:29;;;;;;;20.15;2.70;;;;;;;13.72;91.74;99341.25;5032388;28;20028;-50
2021/10/03 02:57:54;;;;;;;17.35;2.42;;;;;;;13.67;91.73;99346.53;5031288;28;20091;-46
2021/10/03 03:00:19;;;;;;;15.32;2.03;;;;;;;13.68;91.90;99337.34;5032254;28;20056;-46
2021/10/03 03:02:45;;;;;;;17.00;2.40;;;;;;;13.66;91.24;99355.69;5032527;28;20065;-45
2021/10/03 03:05:10;;;;;;;13.88;2.67;;;;;;;13.63;90.92;99349.94;5032587;28;20021;-46
2021/10/03 03:07:36;;;;;;;10.98;2.22;;;;;;;13.54;89.50;99349.50;5032025;28;20049;-46
2021/10/03 03:10:06;;;;;;;13.57;1.65;;;;;;;13.43;88.59;99355.72;5032561;28;20033;-47
2021/10/03 03:12:32;;;;;;;8.52;1.20;;;;;;;13.24;85.76;99350.44;5032673;28;20037;-46
2021/10/03 03:14:57;;;;;;;12.48;1.58;;;;;;;13.13;87.04;99353.97;5030906;28;20037;-47
2021/10/03 03:17:23;;;;;;;14.82;2.00;;;;;;;13.01;87.15;99339.66;5032011;28;20064;-47
2021/10/03 03:19:49;;;;;;;13.93;1.63;;;;;;;12.98;88.52;99350.91;5037945;28;20032;-49
2021/10/03 03:22:14;;;;;;;9.23;1.40;;;;;;;12.91;88.82;99343.75;5032499;28;20026;-46
2021/10/03 03:24:40;;;;;;;12.18;1.73;;;;;;;12.86;89.39;99350.91;5032430;28;20017;-47
2021/10/03 03:27:06;;;;;;;12.13;1.60;;;;;;;12.79;89.37;99359.09;5032128;28;20029;-47
2021/10/03 03:29:32;;;;;;;15.98;1.88;;;;;;;12.74;89.27;99361.69;5032235;28;20029;-45
2021/10/03 03:32:01;;;;;;;9.98;1.40;;;;;;;12.72;90.11;99358.41;5031990;28;20052;-45
2021/10/03 03:34:27;;;;;;;14.15;1.75;;;;;;;12.73;89.69;99360.03;5032199;28;20025;-43
2021/10/03 03:36:52;;;;;;;19.40;1.75;;;;;;;12.71;89.69;99360.25;5031972;28;20048;-42
2021/10/03 03:39:18;;;;;;;10.73;1.60;;;;;;;12.71;89.82;99364.84;5032309;28;20060;-41
2021/10/03 03:41:43;;;;;;;16.10;1.33;;;;;;;12.68;89.03;99354.53;5032147;28;20060;-41
2021/10/03 03:44:09;;;;;;;9.98;1.73;;;;;;;12.68;89.02;99349.13;5032182;28;20036;-43
2021/10/03 03:46:34;;;;;;;16.20;1.98;;;;;;;12.68;89.19;99322.94;5031067;28;20030;-42
2021/10/03 03:48:59;;;;;;;12.48;1.90;;;;;;;12.68;88.74;99311.34;5032259;28;20025;-41
2021/10/03 03:51:25;;;;;;;23.75;1.80;;;;;;;12.66;88.51;99308.03;5032002;28;20036;-43
2021/10/03 03:53:50;;;;;;;12.27;2.05;;;;;;;12.66;88.92;99308.03;5032335;28;20041;-43
2021/10/03 03:56:15;;;;;;;15.75;2.25;;;;;;;12.64;88.97;99310.16;5033128;28;20030;-42
2021/10/03 03:58:41;;;;;;;13.27;1.65;;;;;;;12.63;89.21;99298.53;5040660;28;20071;-42
2021/10/03 04:01:06;;;;;;;16.48;2.08;;;;;;;12.62;89.12;99298.78;5041415;28;20022;-42
2021/10/03 04:03:32;;;;;;;17.98;2.03;;;;;;;12.64;89.54;99310.16;5032159;28;20029;-42
2021/10/03 04:05:57;;;;;;;16.45;1.83;;;;;;;12.61;89.54;99316.84;5032253;28;20029;-42
2021/10/03 04:08:23;;;;;;;15.35;1.77;;;;;;;12.61;89.54;99324.94;5026860;28;20061;-42
2021/10/03 04:10:50;;;;;;;14.52;1.58;;;;;;;12.59;89.65;99331.63;5029635;28;20032;-42
2021/10/03 04:13:16;;;;;;;31.52;3.35;;;;;;;12.59;90.28;99334.34;5034524;28;20540;-43
2021/10/03 04:15:41;;;;;;;12.40;1.30;;;;;;;12.55;90.10;99343.94;5032333;28;20116;-41
2021/10/03 04:18:07;;;;;;;23.13;2.15;;;;;;;12.54;90.20;99350.41;5029279;28;20029;-41
2021/10/03 04:20:32;;;;;;;15.70;2.03;;;;;;;12.56;90.17;99361.75;5023014;28;20045;-42
2021/10/03 04:22:57;;;;;;;14.23;1.40;;;;;;;12.57;90.24;99363.41;5033866;28;20029;-41
2021/10/03 04:25:23;;;;;;;7.40;1.50;;;;;;;12.57;90.08;99368.81;5034555;28;20033;-42
2021/10/03 04:27:48;;;;;;;13.73;1.65;;;;;;;12.56;89.46;99353.66;5032546;28;20021;-42
2021/10/03 04:30:13;;;;;;;10.95;1.50;;;;;;;12.52;88.38;99351.44;5034709;28;20033;-44
2021/10/03 04:32:39;;;;;;;10.65;1.75;;;;;;;12.55;88.95;99355.53;5035415;28;20550;-45
2021/10/03 04:35:04;;;;;;;15.23;1.77;;;;;;;12.52;89.08;99356.81;5035283;28;20052;-46
2021/10/03 04:37:30;;;;;;;11.48;1.63;;;;;;;12.52;89.76;99351.44;5034703;28;20044;-49
2021/10/03 04:39:55;;;;;;;14.40;1.58;;;;;;;12.57;89.97;99358.84;5033161;28;20033;-45
2021/10/03 04:42:21;;;;;;;12.10;1.98;;;;;;;12.53;90.42;99357.63;5034384;28;20060;-47
2021/10/03 04:44:47;;;;;;;12.93;1.40;;;;;;;12.47;90.55;99364.78;5035224;28;20013;-45
2021/10/03 04:47:13;;;;;;;7.13;1.25;;;;;;;12.43;89.98;99362.81;5035318;28;20029;-45
2021/10/03 04:49:39;;;;;;;11.50;1.60;;;;;;;12.44;89.91;99353.66;5022504;28;20057;-45
2021/10/03 04:52:04;;;;;;;14.75;1.90;;;;;;;12.38;90.11;99358.09;5025134;28;20489;-46
2021/10/03 04:54:30;;;;;;;9.13;1.33;;;;;;;12.33;90.35;99362.53;5035170;28;20112;-45
2021/10/03 04:56:55;;;;;;;11.48;1.67;;;;;;;12.31;90.72;99370.84;5025854;28;20033;-44
2021/10/03 04:59:20;;;;;;;11.32;1.48;;;;;;;12.32;91.16;99377.88;5012014;28;20034;-46
2021/10/03 05:01:46;;;;;;;20.05;2.83;;;;;;;12.26;91.28;99385.00;5026872;28;20033;-46
2021/10/03 05:04:11;;;;;;;14.35;1.50;;;;;;;12.27;91.51;99393.94;5018061;28;20038;-45
2021/10/03 05:06:37;;;;;;;18.20;1.77;;;;;;;12.24;91.25;99389.00;5026015;28;20049;-45
2021/10/03 05:09:03;;;;;;;16.85;1.38;;;;;;;12.26;91.82;99392.28;5028600;28;20037;-46
2021/10/03 05:11:28;;;;;;;13.52;1.60;;;;;;;12.26;92.05;99390.41;5027620;28;20069;-45
2021/10/03 05:13:53;;;;;;;17.02;1.60;;;;;;;12.27;92.20;99388.56;5014860;28;20104;-49
2021/10/03 05:16:19;;;;;;;20.48;2.75;;;;;;;12.26;92.43;99389.59;5014701;28;20037;-48
2021/10/03 05:18:44;;;;;;;15.18;2.28;;;;;;;12.23;92.18;99379.25;5029441;28;20032;-47
2021/10/03 05:21:10;;;;;;;14.57;1.60;;;;;;;12.21;92.22;99392.16;5034374;28;20091;-47
2021/10/03 05:23:35;;;;;;;25.10;2.55;;;;;;;12.23;92.44;99390.06;5033660;28;20080;-45
2021/10/03 05:26:00;;;;;;;20.27;2.42;;;;;;;12.25;92.42;99393.34;5029153;28;20088;-48
2021/10/03 05:28:26;;;;;;;11.50;1.77;;;;;;;12.25;91.95;99396.06;5022712;28;20382;-48
2021/10/03 05:30:51;;;;;;;13.13;1.85;;;;;;;12.26;92.14;99395.81;5029197;28;20116;-45
2021/10/03 05:33:16;;;;;;;12.63;1.90;;;;;;;12.26;92.25;99395.81;5014479;28;20025;-47
2021/10/03 05:35:42;;;;;;;16.17;2.13;;;;;;;12.26;92.12;99403.91;5015257;28;20112;-45
2021/10/03 05:38:07;;;;;;;25.35;2.55;;;;;;;12.21;92.14;99402.94;5024984;28;20093;-46
2021/10/03 05:40:33;;;;;;;18.63;2.20;;;;;;;12.23;92.19;99406.22;5028297;28;20034;-45
2021/10/03 05:42:59;;;;;;;23.42;3.15;;;;;;;12.20;92.70;99395.91;5024442;28;20033;-47
2021/10/03 05:45:24;;;;;;;20.48;2.92;;;;;;;12.14;92.51;99388.72;5022796;28;20095;-45
2021/10/03 05:47:50;;;;;;;15.77;1.88;;;;;;;12.19;92.60;99399.63;5022961;28;20038;-44
2021/10/03 05:50:15;;;;;;;20.15;2.30;;;;;;;12.23;92.44;99398.97;5000069;28;20045;-47
2021/10/03 05:52:41;;;;;;;19.20;2.55;;;;;;;12.21;92.72;99402.94;5021679;28;20084;-48
2021/10/03 05:55:07;;;;;;;21.95;2.03;;;;;;;12.18;92.84;99395.31;5030679;28;20079;-46
2021/10/03 05:57:32;;;;;;;22.50;2.20;;;;;;;12.21;92.97;99408.34;5029758;28;20060;-45
2021/10/03 05:59:57;;;;;;;18.42;2.33;;;;;;;12.20;93.54;99412.91;5027317;28;20088;-45
2021/10/03 06:02:23;;;;;;;12.27;2.50;;;;;;;12.19;93.74;99410.44;5030171;28;20037;-45
2021/10/03 06:04:48;;;;;;;21.00;2.97;;;;;;;12.17;93.90;99417.94;5028991;28;20034;-45
2021/10/03 06:07:14;;;;;;;21.70;2.55;;;;;;;12.15;93.91;99428.13;5010816;28;20054;-43
2021/10/03 06:09:39;;;;;;;19.90;2.45;;;;;;;12.18;93.93;99424.97;5025894;28;20523;-42
2021/10/03 06:12:05;;;;;;;20.23;2.35;;;;;;;12.13;93.78;99428.34;5030540;28;20532;-43
2021/10/03 06:14:31;;;;;;;18.55;2.17;;;;;;;12.09;94.00;99435.25;5030448;28;20029;-44
2021/10/03 06:16:56;;;;;;;20.33;2.63;;;;;;;12.05;94.08;99429.47;5035288;28;20102;-42
2021/10/03 06:19:22;;;;;;;16.35;2.20;;;;;;;12.09;93.96;99437.97;5024667;28;20071;-43
2021/10/03 06:21:47;;;;;;;15.98;2.40;;;;;;;12.06;94.00;99443.81;5011166;28;20059;-42
2021/10/03 06:24:12;;;;;;;16.42;3.22;;;;;;;12.07;93.91;99446.25;5025867;28;20037;-43
2021/10/03 06:26:38;;;;;;;16.88;2.88;;;;;;;12.08;93.93;99460.56;5030375;28;20052;-43
2021/10/03 06:29:03;;;;;;;17.05;2.38;;;;;;;12.05;93.93;99453.75;5027308;28;20030;-43
2021/10/03 06:31:30;;;;;;;12.75;1.40;;;;;;;12.07;94.10;99458.91;5029780;28;20112;-43
2021/10/03 06:33:55;;;;;;;15.65;2.00;;;;;;;12.06;94.07;99468.06;5028211;28;20087;-43
2021/10/03 06:36:20;;;;;;;16.05;2.20;;;;;;;12.04;94.22;99478.25;5029657;28;20025;-43
2021/10/03 06:38:46;;;;;;;12.02;2.00;;;;;;;11.99;94.45;99475.41;5028106;28;20044;-43
2021/10/03 06:41:11;;;;;;;11.38;2.00;;;;;;;11.98;94.23;99477.28;5030043;28;20025;-44
2021/10/03 06:43:38;;;;;;;18.80;2.20;;;;;;;11.97;94.29;99478.31;5028099;28;20104;-44
2021/10/03 06:46:04;;;;;;;14.90;2.17;;;;;;;12.01;93.78;99466.03;5029437;28;20042;-43
2021/10/03 06:48:30;;;;;;;19.52;3.15;;;;;;;12.03;93.68;99477.44;5028188;28;20466;-43
2021/10/03 06:50:56;;;;;;;15.75;2.78;;;;;;;12.02;93.79;99483.84;5025995;28;20033;-43
2021/10/03 06:53:21;;;;;;;19.55;2.22;;;;;;;12.02;94.25;99486.56;5028237;28;20060;-44
2021/10/03 06:55:46;;;;;;;17.63;2.40;;;;;;;12.05;94.21;99494.19;5028088;28;20032;-43
2021/10/03 06:58:12;;;;;;;13.15;3.45;;;;;;;12.04;94.29;99487.16;5040619;28;20021;-43
2021/10/03 07:00:38;;;;;;;16.33;2.63;;;;;;;12.01;93.92;99484.91;5029371;28;20017;-47
2021/10/03 07:03:03;;;;;;;20.50;2.42;;;;;;;12.00;94.02;99491.34;5029743;28;20079;-45
2021/10/03 07:05:30;;;;;;;18.75;3.35;;;;;;;12.01;94.10;99490.31;5028087;28;20032;-45
2021/10/03 07:07:55;;;;;;;17.30;2.65;;;;;;;12.02;94.19;99500.03;5018703;28;20050;-43
2021/10/03 07:10:21;;;;;;;18.20;2.72;;;;;;;12.04;94.16;99505.22;5025942;28;20033;-43
2021/10/03 07:12:46;;;;;;;14.50;2.25;;;;;;;12.10;94.23;99495.41;5029655;28;20049;-44
2021/10/03 07:15:12;;;;;;;21.38;2.65;;;;;;;12.13;94.31;99501.16;5010752;28;20168;-44
2021/10/03 07:17:37;;;;;;;19.95;2.92;;;;;;;12.17;94.46;99509.66;5030186;28;20151;-45
2021/10/03 07:20:04;;;;;;;16.38;2.88;;;;;;;12.16;94.50;99513.38;5028769;28;20045;-45
2021/10/03 07:22:29;;;;;;;17.83;2.78;;;;;;;12.19;94.59;99513.78;5026848;28;20033;-46
2021/10/03 07:24:54;;;;;;;15.30;3.13;;;;;;;12.23;94.54;99522.22;5030131;28;20036;-44
2021/10/03 07:27:20;;;;;;;20.95;4.15;;;;;;;12.27;94.57;99518.03;5027906;28;20037;-44
2021/10/03 07:29:45;;;;;;;14.90;4.75;;;;;;;12.27;94.54;99520.75;5029785;28;20053;-45
2021/10/03 07:32:11;;;;;;;17.00;5.38;;;;;;;12.27;94.43;99509.94;5027560;28;20045;-45
2021/10/03 07:34:36;;;;;;;11.88;4.97;;;;;;;12.27;94.59;99505.38;5027986;28;20102;-46
2021/10/03 07:37:03;;;;;;;10.75;4.18;;;;;;;12.28;94.35;99516.97;5029002;28;20384;-49
2021/10/03 07:39:29;;;;;;;9.18;3.60;;;;;;;12.25;94.24;99512.84;5026835;28;20511;-46
2021/10/03 07:41:55;;;;;;;15.50;4.57;;;;;;;12.23;94.22;99520.34;5031894;28;20041;-47
2021/10/03 07:44:20;;;;;;;8.23;2.53;;;;;;;12.21;93.57;99533.22;5029063;28;20033;-47
2021/10/03 07:46:46;;;;;;;7.68;1.92;;;;;;;12.18;93.42;99533.69;5032746;28;20029;-46
2021/10/03 07:49:12;;;;;;;13.15;2.42;;;;;;;12.12;92.88;99528.38;5034561;28;20083;-43
2021/10/03 07:51:38;;;;;;;8.30;2.28;;;;;;;12.09;92.69;99532.34;5035924;28;20473;-44
2021/10/03 07:54:03;;;;;;;9.30;1.60;;;;;;;12.04;92.16;99541.09;5028281;28;20037;-45
2021/10/03 07:56:28;;;;;;;6.28;1.42;;;;;;;12.00;91.82;99558.75;5036855;28;20022;-45
2021/10/03 07:58:54;;;;;;;4.85;2.10;;;;;;;12.02;92.31;99545.88;5034548;28;20030;-44
2021/10/03 08:01:21;;;;;;;8.07;1.90;;;;;;;12.03;92.70;99546.69;5036663;28;20034;-45
2021/10/03 08:03:46;;;;;;;5.13;1.73;;;;;;;12.00;92.55;99547.97;5035991;28;20031;-45
2021/10/03 08:06:12;;;;;;;7.32;2.00;;;;;;;12.03;92.82;99539.47;5035971;28;20029;-44
2021/10/03 08:08:37;;;;;;;7.18;1.85;;;;;;;12.02;92.58;99540.47;5035720;28;20021;-44
2021/10/03 08:11:02;;;;;;;8.18;1.50;;;;;;;12.06;92.61;99541.69;5035777;28;20033;-44
2021/10/03 08:13:28;;;;;;;5.88;1.80;;;;;;;12.14;92.79;99537.88;5036889;28;20033;-45
2021/10/03 08:15:53;;;;;;;7.68;1.90;;;;;;;12.18;92.82;99530.16;5025688;28;20030;-48
2021/10/03 08:18:18;;;;;;;6.40;2.40;;;;;;;12.20;92.77;99530.78;5033466;28;20030;-45
2021/10/03 08:20:45;;;;;;;10.98;2.10;;;;;;;12.30;93.04;99555.34;5017154;28;20048;-48
2021/10/03 08:23:10;;;;;;;9.40;2.38;;;;;;;12.35;93.32;99555.50;5016165;28;20021;-45
2021/10/03 08:25:36;;;;;;;4.53;1.80;;;;;;;12.43;93.78;99560.59;5036627;28;20369;-48
2021/10/03 08:28:01;;;;;;;10.30;2.20;;;;;;;12.45;93.69;99553.09;5035202;28;20500;-47
2021/10/03 08:30:27;;;;;;;12.57;2.75;;;;;;;12.39;93.22;99551.28;5043825;28;20033;-47
2021/10/03 08:32:52;;;;;;;6.97;1.77;;;;;;;12.44;93.16;99548.75;5055149;28;20040;-49
2021/10/03 08:35:17;;;;;;;4.50;1.55;;;;;;;12.41;92.59;99549.19;5053832;28;20029;-48
2021/10/03 08:37:44;;;;;;;5.30;1.80;;;;;;;12.42;92.54;99558.94;5055037;28;20032;-48
2021/10/03 08:40:10;;;;;;;8.27;1.90;;;;;;;12.41;92.29;99570.78;5038020;28;20045;-46
2021/10/03 08:42:36;;;;;;;5.28;1.63;;;;;;;12.42;92.38;99572.41;5035291;28;20175;-45
2021/10/03 08:45:03;;;;;;;6.88;1.50;;;;;;;12.40;92.52;99562.91;5035142;28;20501;-45
2021/10/03 08:47:29;;;;;;;10.40;1.42;;;;;;;12.39;92.56;99563.97;5034947;28;20378;-46
2021/10/03 08:49:54;;;;;;;8.23;1.80;;;;;;;12.40;92.86;99563.75;5034428;28;20074;-46
2021/10/03 08:52:24;;;;;;;7.55;1.73;;;;;;;12.40;93.07;99569.16;5033793;28;20025;-47
2021/10/03 08:54:49;;;;;;;6.78;1.92;;;;;;;12.44;93.48;99570.31;5034032;28;20029;-45
2021/10/03 08:57:14;;;;;;;6.13;2.05;;;;;;;12.46;93.47;99578.22;5033365;28;20464;-47
2021/10/03 09:00:07;;;;;;;11.13;2.40;;;;;;;12.51;93.84;99583.75;5033913;28;20021;-48
2021/10/03 09:02:54;;;;;;;7.97;2.40;;;;;;;12.59;93.83;99593.44;5033646;28;20061;-48
2021/10/03 09:05:21;;;;;;;9.13;2.33;;;;;;;12.63;93.95;99589.22;5033289;28;20022;-46
2021/10/03 09:08:11;;;;;;;7.55;2.20;;;;;;;12.67;93.96;99587.72;5018258;28;20041;-46
2021/10/03 09:11:03;;;;;;;13.98;2.20;;;;;;;12.66;93.40;99578.78;5035026;28;20076;-44
2021/10/03 09:13:31;;;;;;;9.15;2.20;;;;;;;12.66;92.78;99577.97;5033977;28;20380;-44
2021/10/03 09:16:12;;;;;;;5.15;1.80;;;;;;;12.72;91.88;99572.50;5034692;28;20148;-46
2021/10/03 09:18:49;;;;;;;8.50;1.88;;;;;;;12.78;92.16;99559.94;5035281;28;20037;-48
2021/10/03 09:21:30;;;;;;;6.85;1.90;;;;;;;12.88;92.26;99560.25;5035101;28;20397;-45
2021/10/03 09:24:07;;;;;;;9.65;1.60;;;;;;;12.97;92.58;99571.53;5034278;28;20037;-46
2021/10/03 09:26:34;;;;;;;12.30;2.13;;;;;;;13.01;91.95;99569.22;5034141;28;20116;-47
2021/10/03 09:29:22;;;;;;;5.38;1.35;;;;;;;13.07;89.81;99574.50;5033891;28;20022;-47
2021/10/03 09:32:07;;;;;;;6.88;2.13;;;;;;;13.12;89.19;99581.94;5033775;28;20388;-48
2021/10/03 09:34:32;;;;;;;9.85;1.60;;;;;;;13.23;89.00;99589.25;5033534;28;20040;-46
2021/10/03 09:36:59;;;;;;;6.55;1.33;;;;;;;13.24;89.98;99590.88;5033661;28;20029;-46
2021/10/03 09:39:24;;;;;;;6.95;1.30;;;;;;;13.24;89.88;99607.09;5032566;28;20499;-46
2021/10/03 09:41:49;;;;;;;11.75;1.67;;;;;;;13.29;90.82;99607.25;5032136;28;20033;-46
2021/10/03 09:44:16;;;;;;;7.93;1.40;;;;;;;13.28;90.44;99600.22;5029595;28;20033;-46
2021/10/03 09:46:51;;;;;;;4.88;1.20;;;;;;;13.23;89.79;99610.03;5031214;28;20353;-47
2021/10/03 09:49:29;;;;;;;3.88;1.05;;;;;;;13.17;88.54;99612.59;5030446;28;20073;-45
2021/10/03 09:51:55;;;;;;;5.18;1.63;;;;;;;13.12;87.85;99608.94;5030592;28;20493;-48
2021/10/03 09:54:22;;;;;;;7.28;1.00;;;;;;;13.20;88.24;99616.72;5030146;28;20104;-47
2021/10/03 09:56:48;;;;;;;5.97;1.20;;;;;;;13.18;87.86;99619.66;5031538;28;20132;-48
2021/10/03 09:59:14;;;;;;;5.25;1.38;;;;;;;13.12;88.13;99619.75;5037611;28;20029;-45
2021/10/03 10:01:46;;;;;;;4.10;1.38;;;;;;;13.03;87.16;99616.53;5031563;28;20159;-47
2021/10/03 10:04:20;;;;;;;7.55;1.80;;;;;;;12.95;87.17;99608.75;5041579;28;20037;-48
2021/10/03 10:06:47;;;;;;;6.97;1.52;;;;;;;12.96;88.94;99613.94;5029935;28;20038;-46
2021/10/03 10:09:18;;;;;;;6.25;1.42;;;;;;;12.89;88.87;99626.69;5029257;28;20079;-46
2021/10/03 10:11:57;;;;;;;10.50;1.70;;;;;;;12.91;89.91;99634.56;5030589;28;20387;-44
2021/10/03 10:14:28;;;;;;;6.80;1.45;;;;;;;12.86;89.66;99626.31;5029856;28;20037;-44
2021/10/03 10:16:57;;;;;;;6.78;1.40;;;;;;;12.88;90.36;99633.16;5008708;28;20077;-45
2021/10/03 10:19:34;;;;;;;4.38;1.40;;;;;;;12.87;89.96;99639.56;5010463;28;20038;-47
2021/10/03 10:22:11;;;;;;;8.80;1.67;;;;;;;12.87;89.49;99639.56;5010344;28;20034;-45
2021/10/03 10:24:48;;;;;;;2.90;1.10;;;;;;;12.86;89.15;99637.13;5010263;28;20026;-45
2021/10/03 10:27:24;;;;;;;5.13;1.38;;;;;;;12.87;89.26;99644.97;5022796;28;20040;-48
2021/10/03 10:29:57;;;;;;;5.45;2.15;;;;;;;12.92;90.34;99647.00;5030364;28;20037;-47
2021/10/03 10:32:43;;;;;;;5.93;2.30;;;;;;;12.98;90.82;99650.66;5030396;28;20031;-47
2021/10/03 10:35:08;;;;;;;8.98;2.10;;;;;;;12.89;89.81;99653.69;5040870;28;20072;-46
2021/10/03 10:37:49;;;;;;;9.27;2.10;;;;;;;12.94;90.57;99664.63;5047822;28;20483;-46
2021/10/03 10:40:26;;;;;;;3.92;1.60;;;;;;;12.89;89.83;99675.28;5050877;28;20100;-46
2021/10/03 10:42:55;;;;;;;6.65;1.75;;;;;;;12.81;89.76;99678.28;5051585;28;20127;-46
2021/10/03 10:45:41;;;;;;;5.65;1.58;;;;;;;12.72;89.44;99701.25;5052527;28;20530;-46
2021/10/03 10:48:06;;;;;;;3.53;1.48;;;;;;;12.74;90.41;99716.19;5052463;28;20028;-46
2021/10/03 10:50:48;;;;;;;7.43;1.40;;;;;;;12.72;90.45;99725.56;5049326;28;20029;-45
2021/10/03 10:53:32;;;;;;;7.57;1.48;;;;;;;12.58;88.66;99721.31;5032490;28;20056;-47
2021/10/03 10:56:07;;;;;;;7.90;1.55;;;;;;;12.52;89.32;99729.25;5032874;28;20022;-44
2021/10/03 10:58:36;;;;;;;5.72;1.63;;;;;;;12.53;90.28;99735.47;5031688;28;20043;-45
2021/10/03 11:01:11;;;;;;;9.07;2.97;;;;;;;12.57;91.02;99739.38;5040173;28;20160;-45
2021/10/03 11:03:43;;;;;;;7.57;1.80;;;;;;;12.63;91.33;99734.97;5052585;28;20426;-44
2021/10/03 11:06:34;;;;;;;3.58;1.67;;;;;;;12.64;91.15;99747.44;5052296;28;20029;-47
2021/10/03 11:09:02;;;;;;;6.57;1.73;;;;;;;12.72;91.10;99747.97;5051997;28;20059;-47
2021/10/03 11:11:36;;;;;;;2.95;1.83;;;;;;;12.76;91.64;99761.00;5051208;28;20083;-43
2021/10/03 11:14:18;;;;;;;8.75;2.22;;;;;;;12.82;91.99;99752.88;5035350;28;20385;-45
2021/10/03 11:16:48;;;;;;;5.35;1.38;;;;;;;12.70;89.05;99755.47;5032143;28;20029;-46
2021/10/03 11:19:24;;;;;;;9.10;2.25;;;;;;;12.72;89.20;99766.03;5032412;28;20480;-45
2021/10/03 11:21:56;;;;;;;7.05;1.90;;;;;;;12.71;90.81;99764.38;5031886;28;20037;-48
2021/10/03 11:24:25;;;;;;;6.55;1.90;;;;;;;12.63;90.93;99762.78;5031692;28;20060;-49
2021/10/03 11:26:57;;;;;;;10.63;1.65;;;;;;;12.63;90.76;99762.78;5032116;28;20021;-45
2021/10/03 11:29:28;;;;;;;5.45;1.90;;;;;;;12.67;90.68;99760.47;5031179;28;20101;-47
2021/10/03 11:31:58;;;;;;;7.97;2.33;;;;;;;12.73;91.48;99764.97;5032080;28;20026;-49